Plaza, Washington
Current Conditions -  °F | °C
As of 10:53 AM on Friday 24 Oct 2014 (Local Time) from KGEG Reporting Station
Broken Clouds Broken Clouds  
Wind Chill: 47°   Ceiling: 20000
Heat Index: 49°   Visibility: 10mi
Dew Point: 42°   Wind: 5mph
Humidity: 77%   Direction: 190°S
Pressure: 30.1"   Gusts: NA
Location:  47.2196°N, 117.453°W
Report Text: KGEG 241753Z 19004KT 10SM FEW025 FEW050 BKN200 09/06 A3010 RMK AO2 SLP198 T00940056 10094 20056 51009
Loading
Personal Weather Stations






























Interactive Weather Map New forecast layout! Learn more

10-Day Weather Forecast

Advertisements
Track Severe Weather on mobile